sensor_id;sensor_type;location;lat;lon;timestamp;P1;durP1;ratioP1;P2;durP2;ratioP2
21010;SDS011;10663;42.714;23.274;2022-12-20T00:00:21;22.83;;;14.27;;
21010;SDS011;10663;42.714;23.274;2022-12-20T00:01:52;21.42;;;13.30;;
21010;SDS011;10663;42.714;23.274;2022-12-20T00:03:23;21.13;;;13.90;;
21010;SDS011;10663;42.714;23.274;2022-12-20T00:04:54;21.08;;;13.52;;
21010;SDS011;10663;42.714;23.274;2022-12-20T00:06:25;19.75;;;12.88;;
21010;SDS011;10663;42.714;23.274;2022-12-20T00:07:56;22.73;;;14.52;;
21010;SDS011;10663;42.714;23.274;2022-12-20T00:09:27;22.45;;;13.40;;
21010;SDS011;10663;42.714;23.274;2022-12-20T00:10:58;21.85;;;13.23;;
21010;SDS011;10663;42.714;23.274;2022-12-20T00:12:32;20.98;;;13.48;;
21010;SDS011;10663;42.714;23.274;2022-12-20T00:14:02;18.75;;;12.75;;
21010;SDS011;10663;42.714;23.274;2022-12-20T00:15:33;21.20;;;13.65;;
21010;SDS011;10663;42.714;23.274;2022-12-20T00:17:05;18.35;;;13.00;;
21010;SDS011;10663;42.714;23.274;2022-12-20T00:18:36;20.13;;;12.80;;
21010;SDS011;10663;42.714;23.274;2022-12-20T00:20:08;20.92;;;13.75;;
21010;SDS011;10663;42.714;23.274;2022-12-20T00:21:39;20.60;;;13.02;;
21010;SDS011;10663;42.714;23.274;2022-12-20T00:23:10;20.77;;;13.10;;
21010;SDS011;10663;42.714;23.274;2022-12-20T00:24:41;21.50;;;13.98;;
21010;SDS011;10663;42.714;23.274;2022-12-20T00:26:13;20.83;;;13.38;;
21010;SDS011;10663;42.714;23.274;2022-12-20T00:27:49;22.35;;;13.02;;
21010;SDS011;10663;42.714;23.274;2022-12-20T00:29:21;20.08;;;12.50;;
21010;SDS011;10663;42.714;23.274;2022-12-20T00:30:52;20.10;;;12.88;;
21010;SDS011;10663;42.714;23.274;2022-12-20T00:32:24;19.55;;;13.00;;
21010;SDS011;10663;42.714;23.274;2022-12-20T00:33:56;19.95;;;12.93;;
21010;SDS011;10663;42.714;23.274;2022-12-20T00:35:27;19.98;;;12.85;;
21010;SDS011;10663;42.714;23.274;2022-12-20T00:36:58;20.58;;;12.70;;
21010;SDS011;10663;42.714;23.274;2022-12-20T00:38:29;21.45;;;13.27;;
21010;SDS011;10663;42.714;23.274;2022-12-20T00:40:00;20.35;;;13.32;;
21010;SDS011;10663;42.714;23.274;2022-12-20T00:41:32;21.17;;;13.75;;
21010;SDS011;10663;42.714;23.274;2022-12-20T00:43:03;20.15;;;12.57;;
21010;SDS011;10663;42.714;23.274;2022-12-20T00:44:34;19.55;;;13.15;;
21010;SDS011;10663;42.714;23.274;2022-12-20T00:46:07;20.20;;;12.88;;
21010;SDS011;10663;42.714;23.274;2022-12-20T00:47:46;20.40;;;12.95;;
21010;SDS011;10663;42.714;23.274;2022-12-20T00:49:19;19.13;;;12.52;;
21010;SDS011;10663;42.714;23.274;2022-12-20T00:50:51;19.42;;;12.98;;
21010;SDS011;10663;42.714;23.274;2022-12-20T00:52:22;19.17;;;12.27;;
21010;SDS011;10663;42.714;23.274;2022-12-20T00:53:53;17.55;;;12.27;;
21010;SDS011;10663;42.714;23.274;2022-12-20T00:55:24;20.10;;;12.90;;
21010;SDS011;10663;42.714;23.274;2022-12-20T00:56:56;18.97;;;12.37;;
21010;SDS011;10663;42.714;23.274;2022-12-20T00:58:27;19.52;;;12.68;;
21010;SDS011;10663;42.714;23.274;2022-12-20T00:59:58;18.33;;;12.27;;
21010;SDS011;10663;42.714;23.274;2022-12-20T01:01:30;18.90;;;12.07;;
21010;SDS011;10663;42.714;23.274;2022-12-20T01:03:04;18.35;;;12.10;;
21010;SDS011;10663;42.714;23.274;2022-12-20T01:04:35;18.30;;;11.45;;
21010;SDS011;10663;42.714;23.274;2022-12-20T01:06:06;20.23;;;11.47;;
21010;SDS011;10663;42.714;23.274;2022-12-20T01:07:37;17.58;;;12.00;;
21010;SDS011;10663;42.714;23.274;2022-12-20T01:09:09;18.80;;;12.23;;
21010;SDS011;10663;42.714;23.274;2022-12-20T01:10:40;19.85;;;12.23;;
21010;SDS011;10663;42.714;23.274;2022-12-20T01:12:11;20.58;;;12.35;;
21010;SDS011;10663;42.714;23.274;2022-12-20T01:13:44;19.20;;;12.07;;
21010;SDS011;10663;42.714;23.274;2022-12-20T01:15:16;19.33;;;12.10;;
21010;SDS011;10663;42.714;23.274;2022-12-20T01:16:47;19.10;;;11.70;;
21010;SDS011;10663;42.714;23.274;2022-12-20T01:18:18;17.75;;;11.90;;
21010;SDS011;10663;42.714;23.274;2022-12-20T01:19:49;18.95;;;12.05;;
21010;SDS011;10663;42.714;23.274;2022-12-20T01:21:21;18.33;;;11.65;;
21010;SDS011;10663;42.714;23.274;2022-12-20T01:22:54;17.65;;;11.68;;
21010;SDS011;10663;42.714;23.274;2022-12-20T01:24:25;17.58;;;11.70;;
21010;SDS011;10663;42.714;23.274;2022-12-20T01:25:56;17.00;;;11.40;;
21010;SDS011;10663;42.714;23.274;2022-12-20T01:27:29;17.90;;;11.80;;
21010;SDS011;10663;42.714;23.274;2022-12-20T01:29:00;16.52;;;11.23;;
21010;SDS011;10663;42.714;23.274;2022-12-20T01:30:31;16.65;;;10.90;;
21010;SDS011;10663;42.714;23.274;2022-12-20T01:32:02;17.23;;;11.35;;
21010;SDS011;10663;42.714;23.274;2022-12-20T01:33:33;17.80;;;11.25;;
21010;SDS011;10663;42.714;23.274;2022-12-20T01:35:04;16.15;;;11.32;;
21010;SDS011;10663;42.714;23.274;2022-12-20T01:36:35;18.48;;;11.13;;
21010;SDS011;10663;42.714;23.274;2022-12-20T01:38:10;19.13;;;11.90;;
21010;SDS011;10663;42.714;23.274;2022-12-20T01:39:41;18.95;;;11.88;;
21010;SDS011;10663;42.714;23.274;2022-12-20T01:41:16;16.52;;;11.25;;
21010;SDS011;10663;42.714;23.274;2022-12-20T01:42:48;17.45;;;10.88;;
21010;SDS011;10663;42.714;23.274;2022-12-20T01:45:50;16.80;;;11.82;;
21010;SDS011;10663;42.714;23.274;2022-12-20T01:47:22;16.27;;;11.23;;
21010;SDS011;10663;42.714;23.274;2022-12-20T01:48:58;17.90;;;11.25;;
21010;SDS011;10663;42.714;23.274;2022-12-20T01:50:34;18.13;;;11.02;;
21010;SDS011;10663;42.714;23.274;2022-12-20T01:52:10;16.67;;;11.35;;
21010;SDS011;10663;42.714;23.274;2022-12-20T01:53:44;16.63;;;11.63;;
21010;SDS011;10663;42.714;23.274;2022-12-20T01:55:23;18.85;;;11.93;;
21010;SDS011;10663;42.714;23.274;2022-12-20T01:56:58;16.70;;;10.93;;
21010;SDS011;10663;42.714;23.274;2022-12-20T01:58:33;18.70;;;11.45;;
21010;SDS011;10663;42.714;23.274;2022-12-20T02:00:07;15.73;;;11.13;;
21010;SDS011;10663;42.714;23.274;2022-12-20T02:01:44;16.48;;;11.10;;
21010;SDS011;10663;42.714;23.274;2022-12-20T02:03:15;17.57;;;11.73;;
21010;SDS011;10663;42.714;23.274;2022-12-20T02:04:46;16.27;;;10.50;;
21010;SDS011;10663;42.714;23.274;2022-12-20T02:06:18;16.83;;;11.13;;
21010;SDS011;10663;42.714;23.274;2022-12-20T02:07:52;18.40;;;11.30;;
21010;SDS011;10663;42.714;23.274;2022-12-20T02:09:25;19.17;;;10.73;;
21010;SDS011;10663;42.714;23.274;2022-12-20T02:31:33;17.00;;;11.25;;
21010;SDS011;10663;42.714;23.274;2022-12-20T02:33:12;18.48;;;11.48;;
21010;SDS011;10663;42.714;23.274;2022-12-20T02:34:44;17.42;;;11.43;;
21010;SDS011;10663;42.714;23.274;2022-12-20T02:36:16;17.05;;;11.45;;
21010;SDS011;10663;42.714;23.274;2022-12-20T02:37:54;16.88;;;11.00;;
21010;SDS011;10663;42.714;23.274;2022-12-20T02:39:30;16.25;;;11.90;;
21010;SDS011;10663;42.714;23.274;2022-12-20T02:43:18;16.73;;;11.40;;
21010;SDS011;10663;42.714;23.274;2022-12-20T02:45:10;18.20;;;11.52;;
21010;SDS011;10663;42.714;23.274;2022-12-20T02:46:47;16.80;;;11.52;;
21010;SDS011;10663;42.714;23.274;2022-12-20T02:48:22;15.93;;;10.93;;
21010;SDS011;10663;42.714;23.274;2022-12-20T02:49:58;19.70;;;12.07;;
21010;SDS011;10663;42.714;23.274;2022-12-20T02:51:29;16.50;;;11.50;;
21010;SDS011;10663;42.714;23.274;2022-12-20T02:53:03;17.80;;;11.55;;
21010;SDS011;10663;42.714;23.274;2022-12-20T02:54:36;18.40;;;11.30;;
21010;SDS011;10663;42.714;23.274;2022-12-20T02:58:02;18.92;;;12.05;;
21010;SDS011;10663;42.714;23.274;2022-12-20T02:59:42;17.25;;;11.85;;
21010;SDS011;10663;42.714;23.274;2022-12-20T03:01:33;18.15;;;12.13;;
21010;SDS011;10663;42.714;23.274;2022-12-20T03:03:08;17.75;;;12.02;;
21010;SDS011;10663;42.714;23.274;2022-12-20T03:04:52;19.80;;;11.98;;
21010;SDS011;10663;42.714;23.274;2022-12-20T03:06:26;17.05;;;12.30;;
21010;SDS011;10663;42.714;23.274;2022-12-20T03:07:57;17.50;;;11.60;;
21010;SDS011;10663;42.714;23.274;2022-12-20T03:09:29;19.55;;;11.38;;
21010;SDS011;10663;42.714;23.274;2022-12-20T03:11:02;18.45;;;12.30;;
21010;SDS011;10663;42.714;23.274;2022-12-20T03:12:35;18.13;;;12.10;;
21010;SDS011;10663;42.714;23.274;2022-12-20T03:14:06;18.55;;;12.07;;
21010;SDS011;10663;42.714;23.274;2022-12-20T03:15:37;16.88;;;12.10;;
21010;SDS011;10663;42.714;23.274;2022-12-20T03:17:08;19.63;;;11.82;;
21010;SDS011;10663;42.714;23.274;2022-12-20T03:18:41;19.40;;;12.07;;
21010;SDS011;10663;42.714;23.274;2022-12-20T03:20:14;18.42;;;11.52;;
21010;SDS011;10663;42.714;23.274;2022-12-20T03:21:45;18.40;;;11.47;;
21010;SDS011;10663;42.714;23.274;2022-12-20T03:23:17;17.48;;;11.07;;
21010;SDS011;10663;42.714;23.274;2022-12-20T03:24:48;17.15;;;11.27;;
21010;SDS011;10663;42.714;23.274;2022-12-20T03:26:19;17.27;;;11.80;;
21010;SDS011;10663;42.714;23.274;2022-12-20T03:27:56;18.58;;;11.10;;
21010;SDS011;10663;42.714;23.274;2022-12-20T03:29:29;16.25;;;10.80;;
21010;SDS011;10663;42.714;23.274;2022-12-20T03:31:00;18.25;;;11.32;;
21010;SDS011;10663;42.714;23.274;2022-12-20T03:32:31;15.38;;;10.85;;
21010;SDS011;10663;42.714;23.274;2022-12-20T03:34:02;16.40;;;11.50;;
21010;SDS011;10663;42.714;23.274;2022-12-20T03:35:33;18.30;;;11.70;;
21010;SDS011;10663;42.714;23.274;2022-12-20T03:37:04;17.08;;;11.23;;
21010;SDS011;10663;42.714;23.274;2022-12-20T03:38:35;16.30;;;11.43;;
21010;SDS011;10663;42.714;23.274;2022-12-20T03:40:08;16.30;;;11.32;;
21010;SDS011;10663;42.714;23.274;2022-12-20T03:41:39;17.70;;;11.98;;
21010;SDS011;10663;42.714;23.274;2022-12-20T03:43:12;18.80;;;11.80;;
21010;SDS011;10663;42.714;23.274;2022-12-20T03:44:42;18.08;;;11.57;;
21010;SDS011;10663;42.714;23.274;2022-12-20T03:46:14;17.05;;;11.55;;
21010;SDS011;10663;42.714;23.274;2022-12-20T03:47:46;19.35;;;12.02;;
21010;SDS011;10663;42.714;23.274;2022-12-20T03:49:17;18.77;;;12.55;;
21010;SDS011;10663;42.714;23.274;2022-12-20T03:50:52;18.98;;;12.35;;
21010;SDS011;10663;42.714;23.274;2022-12-20T03:52:23;19.05;;;12.43;;
21010;SDS011;10663;42.714;23.274;2022-12-20T03:53:54;17.80;;;12.10;;
21010;SDS011;10663;42.714;23.274;2022-12-20T03:55:29;17.77;;;12.13;;
21010;SDS011;10663;42.714;23.274;2022-12-20T03:57:00;19.00;;;12.70;;
21010;SDS011;10663;42.714;23.274;2022-12-20T03:58:32;19.37;;;13.07;;
21010;SDS011;10663;42.714;23.274;2022-12-20T04:00:03;19.92;;;13.35;;
21010;SDS011;10663;42.714;23.274;2022-12-20T04:01:45;19.50;;;13.60;;
21010;SDS011;10663;42.714;23.274;2022-12-20T04:03:16;19.05;;;12.00;;
21010;SDS011;10663;42.714;23.274;2022-12-20T04:04:47;18.02;;;12.48;;
21010;SDS011;10663;42.714;23.274;2022-12-20T04:06:19;21.35;;;13.55;;
21010;SDS011;10663;42.714;23.274;2022-12-20T04:07:51;19.38;;;12.90;;
21010;SDS011;10663;42.714;23.274;2022-12-20T04:09:21;18.55;;;12.38;;
21010;SDS011;10663;42.714;23.274;2022-12-20T04:10:58;17.98;;;12.77;;
21010;SDS011;10663;42.714;23.274;2022-12-20T04:13:07;20.45;;;13.25;;
21010;SDS011;10663;42.714;23.274;2022-12-20T04:14:38;20.58;;;13.40;;
21010;SDS011;10663;42.714;23.274;2022-12-20T04:16:10;18.02;;;13.13;;
21010;SDS011;10663;42.714;23.274;2022-12-20T04:17:42;19.10;;;13.35;;
21010;SDS011;10663;42.714;23.274;2022-12-20T04:19:13;20.27;;;13.60;;
21010;SDS011;10663;42.714;23.274;2022-12-20T04:20:51;23.88;;;14.65;;
21010;SDS011;10663;42.714;23.274;2022-12-20T04:22:27;21.33;;;13.48;;
21010;SDS011;10663;42.714;23.274;2022-12-20T04:24:06;22.80;;;14.82;;
21010;SDS011;10663;42.714;23.274;2022-12-20T04:25:47;22.17;;;14.95;;
21010;SDS011;10663;42.714;23.274;2022-12-20T04:27:21;22.67;;;14.95;;
21010;SDS011;10663;42.714;23.274;2022-12-20T04:28:53;29.73;;;17.20;;
21010;SDS011;10663;42.714;23.274;2022-12-20T04:30:24;22.77;;;14.82;;
21010;SDS011;10663;42.714;23.274;2022-12-20T04:31:55;23.15;;;14.98;;
21010;SDS011;10663;42.714;23.274;2022-12-20T04:33:28;22.73;;;14.68;;
21010;SDS011;10663;42.714;23.274;2022-12-20T04:34:59;20.85;;;13.57;;
21010;SDS011;10663;42.714;23.274;2022-12-20T04:36:30;20.23;;;14.88;;
21010;SDS011;10663;42.714;23.274;2022-12-20T04:38:03;20.00;;;14.00;;
21010;SDS011;10663;42.714;23.274;2022-12-20T04:39:34;20.67;;;14.02;;
21010;SDS011;10663;42.714;23.274;2022-12-20T04:41:22;21.83;;;14.75;;
21010;SDS011;10663;42.714;23.274;2022-12-20T04:42:57;22.27;;;14.70;;
21010;SDS011;10663;42.714;23.274;2022-12-20T04:44:28;20.63;;;14.70;;
21010;SDS011;10663;42.714;23.274;2022-12-20T04:45:59;22.23;;;15.17;;
21010;SDS011;10663;42.714;23.274;2022-12-20T04:47:31;23.70;;;15.43;;
21010;SDS011;10663;42.714;23.274;2022-12-20T04:49:02;20.65;;;14.13;;
21010;SDS011;10663;42.714;23.274;2022-12-20T04:50:36;24.05;;;15.70;;
21010;SDS011;10663;42.714;23.274;2022-12-20T04:52:08;24.90;;;15.20;;
21010;SDS011;10663;42.714;23.274;2022-12-20T04:53:57;27.17;;;15.80;;
21010;SDS011;10663;42.714;23.274;2022-12-20T04:55:48;21.80;;;14.18;;
21010;SDS011;10663;42.714;23.274;2022-12-20T04:57:20;23.38;;;14.90;;
21010;SDS011;10663;42.714;23.274;2022-12-20T04:58:53;22.52;;;14.90;;
21010;SDS011;10663;42.714;23.274;2022-12-20T05:00:25;23.83;;;15.20;;
21010;SDS011;10663;42.714;23.274;2022-12-20T05:02:04;21.15;;;14.85;;
21010;SDS011;10663;42.714;23.274;2022-12-20T05:03:49;22.73;;;15.90;;
21010;SDS011;10663;42.714;23.274;2022-12-20T05:05:20;26.67;;;16.75;;
21010;SDS011;10663;42.714;23.274;2022-12-20T05:06:55;25.92;;;16.30;;
21010;SDS011;10663;42.714;23.274;2022-12-20T05:08:26;26.75;;;16.58;;
21010;SDS011;10663;42.714;23.274;2022-12-20T05:09:57;24.00;;;15.23;;
21010;SDS011;10663;42.714;23.274;2022-12-20T05:11:28;24.45;;;15.23;;
21010;SDS011;10663;42.714;23.274;2022-12-20T05:12:59;24.92;;;15.52;;
21010;SDS011;10663;42.714;23.274;2022-12-20T05:14:39;24.33;;;15.77;;
21010;SDS011;10663;42.714;23.274;2022-12-20T05:16:10;25.17;;;15.77;;
21010;SDS011;10663;42.714;23.274;2022-12-20T05:17:41;22.92;;;15.85;;
21010;SDS011;10663;42.714;23.274;2022-12-20T05:19:12;23.13;;;16.10;;
21010;SDS011;10663;42.714;23.274;2022-12-20T05:20:45;24.25;;;15.27;;
21010;SDS011;10663;42.714;23.274;2022-12-20T05:22:16;24.42;;;15.93;;
21010;SDS011;10663;42.714;23.274;2022-12-20T05:24:13;22.38;;;15.52;;
21010;SDS011;10663;42.714;23.274;2022-12-20T05:26:19;25.45;;;15.82;;
21010;SDS011;10663;42.714;23.274;2022-12-20T05:27:52;27.35;;;16.45;;
21010;SDS011;10663;42.714;23.274;2022-12-20T05:29:26;24.45;;;16.40;;
21010;SDS011;10663;42.714;23.274;2022-12-20T05:30:58;25.55;;;15.95;;
21010;SDS011;10663;42.714;23.274;2022-12-20T05:32:30;24.27;;;15.75;;
21010;SDS011;10663;42.714;23.274;2022-12-20T05:34:01;23.53;;;16.10;;
21010;SDS011;10663;42.714;23.274;2022-12-20T05:35:35;22.80;;;15.68;;
21010;SDS011;10663;42.714;23.274;2022-12-20T05:37:13;24.57;;;15.67;;
21010;SDS011;10663;42.714;23.274;2022-12-20T05:38:46;24.80;;;15.82;;
21010;SDS011;10663;42.714;23.274;2022-12-20T05:40:20;21.98;;;15.32;;
21010;SDS011;10663;42.714;23.274;2022-12-20T05:41:53;24.42;;;15.95;;
21010;SDS011;10663;42.714;23.274;2022-12-20T05:43:26;24.95;;;15.60;;
21010;SDS011;10663;42.714;23.274;2022-12-20T05:44:57;23.23;;;15.50;;
21010;SDS011;10663;42.714;23.274;2022-12-20T05:46:28;23.85;;;15.60;;
21010;SDS011;10663;42.714;23.274;2022-12-20T05:48:06;23.38;;;16.33;;
21010;SDS011;10663;42.714;23.274;2022-12-20T05:49:39;22.35;;;15.85;;
21010;SDS011;10663;42.714;23.274;2022-12-20T05:51:13;23.65;;;14.93;;
21010;SDS011;10663;42.714;23.274;2022-12-20T05:53:06;22.83;;;15.20;;
21010;SDS011;10663;42.714;23.274;2022-12-20T05:54:37;21.85;;;15.30;;
21010;SDS011;10663;42.714;23.274;2022-12-20T05:56:34;23.10;;;15.57;;
21010;SDS011;10663;42.714;23.274;2022-12-20T05:58:05;25.05;;;15.77;;
21010;SDS011;10663;42.714;23.274;2022-12-20T05:59:50;21.48;;;15.15;;
21010;SDS011;10663;42.714;23.274;2022-12-20T06:01:26;23.02;;;15.43;;
21010;SDS011;10663;42.714;23.274;2022-12-20T06:03:01;26.23;;;15.82;;
21010;SDS011;10663;42.714;23.274;2022-12-20T06:04:32;24.60;;;16.60;;
21010;SDS011;10663;42.714;23.274;2022-12-20T06:06:07;22.67;;;15.18;;
21010;SDS011;10663;42.714;23.274;2022-12-20T06:07:38;24.67;;;15.63;;
21010;SDS011;10663;42.714;23.274;2022-12-20T06:09:09;31.50;;;16.55;;
21010;SDS011;10663;42.714;23.274;2022-12-20T06:10:45;24.40;;;15.68;;
21010;SDS011;10663;42.714;23.274;2022-12-20T06:12:18;27.98;;;16.42;;
21010;SDS011;10663;42.714;23.274;2022-12-20T06:13:51;25.77;;;16.35;;
21010;SDS011;10663;42.714;23.274;2022-12-20T06:15:22;26.88;;;16.33;;
21010;SDS011;10663;42.714;23.274;2022-12-20T06:16:53;25.70;;;16.60;;
21010;SDS011;10663;42.714;23.274;2022-12-20T06:18:24;26.63;;;16.38;;
21010;SDS011;10663;42.714;23.274;2022-12-20T06:19:59;24.10;;;16.38;;
21010;SDS011;10663;42.714;23.274;2022-12-20T06:21:30;26.05;;;16.13;;
21010;SDS011;10663;42.714;23.274;2022-12-20T06:23:02;26.10;;;16.57;;
21010;SDS011;10663;42.714;23.274;2022-12-20T06:24:39;25.48;;;16.13;;
21010;SDS011;10663;42.714;23.274;2022-12-20T06:26:10;25.00;;;16.33;;
21010;SDS011;10663;42.714;23.274;2022-12-20T06:27:49;23.85;;;16.08;;
21010;SDS011;10663;42.714;23.274;2022-12-20T06:29:20;27.27;;;15.60;;
21010;SDS011;10663;42.714;23.274;2022-12-20T06:30:58;34.13;;;17.15;;
21010;SDS011;10663;42.714;23.274;2022-12-20T06:32:42;25.42;;;15.57;;
21010;SDS011;10663;42.714;23.274;2022-12-20T06:34:14;27.92;;;16.10;;
21010;SDS011;10663;42.714;23.274;2022-12-20T06:35:50;29.90;;;16.85;;
21010;SDS011;10663;42.714;23.274;2022-12-20T06:37:24;29.98;;;16.58;;
21010;SDS011;10663;42.714;23.274;2022-12-20T06:38:55;28.33;;;16.48;;
21010;SDS011;10663;42.714;23.274;2022-12-20T06:40:26;24.45;;;16.30;;
21010;SDS011;10663;42.714;23.274;2022-12-20T06:41:57;26.97;;;15.43;;
21010;SDS011;10663;42.714;23.274;2022-12-20T06:43:29;30.33;;;16.27;;
21010;SDS011;10663;42.714;23.274;2022-12-20T06:45:00;27.80;;;16.52;;
21010;SDS011;10663;42.714;23.274;2022-12-20T06:46:31;26.63;;;16.38;;
21010;SDS011;10663;42.714;23.274;2022-12-20T06:48:03;30.00;;;15.77;;
21010;SDS011;10663;42.714;23.274;2022-12-20T06:49:36;28.80;;;16.48;;
21010;SDS011;10663;42.714;23.274;2022-12-20T06:51:14;23.92;;;15.50;;
21010;SDS011;10663;42.714;23.274;2022-12-20T06:52:46;28.55;;;16.00;;
21010;SDS011;10663;42.714;23.274;2022-12-20T06:54:17;26.10;;;16.00;;
21010;SDS011;10663;42.714;23.274;2022-12-20T06:55:49;28.38;;;16.25;;
21010;SDS011;10663;42.714;23.274;2022-12-20T06:57:21;24.75;;;16.13;;
21010;SDS011;10663;42.714;23.274;2022-12-20T06:58:52;28.67;;;16.50;;
21010;SDS011;10663;42.714;23.274;2022-12-20T07:00:23;27.67;;;16.67;;
21010;SDS011;10663;42.714;23.274;2022-12-20T07:01:54;28.42;;;15.35;;
21010;SDS011;10663;42.714;23.274;2022-12-20T07:03:25;24.20;;;15.30;;
21010;SDS011;10663;42.714;23.274;2022-12-20T07:04:56;26.48;;;15.15;;
21010;SDS011;10663;42.714;23.274;2022-12-20T07:06:27;24.30;;;15.00;;
21010;SDS011;10663;42.714;23.274;2022-12-20T07:07:58;25.33;;;14.90;;
21010;SDS011;10663;42.714;23.274;2022-12-20T07:09:29;20.02;;;14.45;;
21010;SDS011;10663;42.714;23.274;2022-12-20T07:11:06;22.15;;;14.45;;
21010;SDS011;10663;42.714;23.274;2022-12-20T07:12:38;26.13;;;15.05;;
21010;SDS011;10663;42.714;23.274;2022-12-20T07:14:09;25.33;;;15.50;;
21010;SDS011;10663;42.714;23.274;2022-12-20T07:15:40;23.50;;;14.57;;
21010;SDS011;10663;42.714;23.274;2022-12-20T07:17:11;22.80;;;14.55;;
21010;SDS011;10663;42.714;23.274;2022-12-20T07:18:42;22.52;;;14.45;;
21010;SDS011;10663;42.714;23.274;2022-12-20T07:20:12;26.15;;;16.38;;
21010;SDS011;10663;42.714;23.274;2022-12-20T07:21:44;23.88;;;15.57;;
21010;SDS011;10663;42.714;23.274;2022-12-20T07:23:16;28.80;;;16.48;;
21010;SDS011;10663;42.714;23.274;2022-12-20T07:24:48;29.70;;;18.38;;
21010;SDS011;10663;42.714;23.274;2022-12-20T07:26:19;25.33;;;16.90;;
21010;SDS011;10663;42.714;23.274;2022-12-20T07:27:51;27.45;;;16.98;;
21010;SDS011;10663;42.714;23.274;2022-12-20T07:29:22;24.75;;;16.05;;
21010;SDS011;10663;42.714;23.274;2022-12-20T07:30:53;24.60;;;16.15;;
21010;SDS011;10663;42.714;23.274;2022-12-20T07:32:24;25.67;;;15.85;;
21010;SDS011;10663;42.714;23.274;2022-12-20T07:33:55;23.17;;;16.13;;
21010;SDS011;10663;42.714;23.274;2022-12-20T07:35:26;29.08;;;16.63;;
21010;SDS011;10663;42.714;23.274;2022-12-20T07:36:57;27.10;;;16.08;;
21010;SDS011;10663;42.714;23.274;2022-12-20T07:38:28;23.15;;;15.23;;
21010;SDS011;10663;42.714;23.274;2022-12-20T07:39:59;25.02;;;15.48;;
21010;SDS011;10663;42.714;23.274;2022-12-20T07:41:30;24.23;;;15.32;;
21010;SDS011;10663;42.714;23.274;2022-12-20T07:43:01;23.75;;;15.30;;
21010;SDS011;10663;42.714;23.274;2022-12-20T07:44:32;25.35;;;15.05;;
21010;SDS011;10663;42.714;23.274;2022-12-20T07:46:03;26.77;;;15.77;;
21010;SDS011;10663;42.714;23.274;2022-12-20T07:47:35;24.67;;;15.68;;
21010;SDS011;10663;42.714;23.274;2022-12-20T07:49:06;24.58;;;15.57;;
21010;SDS011;10663;42.714;23.274;2022-12-20T07:50:38;27.33;;;16.30;;
21010;SDS011;10663;42.714;23.274;2022-12-20T07:52:11;25.40;;;15.18;;
21010;SDS011;10663;42.714;23.274;2022-12-20T07:53:47;26.73;;;16.55;;
21010;SDS011;10663;42.714;23.274;2022-12-20T07:55:22;22.50;;;15.35;;
21010;SDS011;10663;42.714;23.274;2022-12-20T07:56:54;27.42;;;15.27;;
21010;SDS011;10663;42.714;23.274;2022-12-20T07:58:29;24.55;;;15.13;;
21010;SDS011;10663;42.714;23.274;2022-12-20T08:00:03;25.00;;;14.82;;
21010;SDS011;10663;42.714;23.274;2022-12-20T08:01:42;23.95;;;15.27;;
21010;SDS011;10663;42.714;23.274;2022-12-20T08:03:16;24.60;;;15.25;;
21010;SDS011;10663;42.714;23.274;2022-12-20T08:04:50;25.02;;;15.52;;
21010;SDS011;10663;42.714;23.274;2022-12-20T08:06:23;24.40;;;14.73;;
21010;SDS011;10663;42.714;23.274;2022-12-20T08:07:54;23.48;;;15.05;;
21010;SDS011;10663;42.714;23.274;2022-12-20T08:09:28;30.77;;;17.90;;
21010;SDS011;10663;42.714;23.274;2022-12-20T08:11:04;27.70;;;16.40;;
21010;SDS011;10663;42.714;23.274;2022-12-20T08:12:39;25.27;;;15.80;;
21010;SDS011;10663;42.714;23.274;2022-12-20T08:14:11;25.65;;;15.35;;
21010;SDS011;10663;42.714;23.274;2022-12-20T08:15:43;27.27;;;15.13;;
21010;SDS011;10663;42.714;23.274;2022-12-20T08:17:14;24.43;;;14.37;;
21010;SDS011;10663;42.714;23.274;2022-12-20T08:18:45;26.40;;;15.00;;
21010;SDS011;10663;42.714;23.274;2022-12-20T08:20:16;22.27;;;14.33;;
21010;SDS011;10663;42.714;23.274;2022-12-20T08:21:47;23.85;;;13.77;;
21010;SDS011;10663;42.714;23.274;2022-12-20T08:23:18;23.60;;;13.60;;
21010;SDS011;10663;42.714;23.274;2022-12-20T08:24:49;21.15;;;14.35;;
21010;SDS011;10663;42.714;23.274;2022-12-20T08:26:19;20.20;;;13.20;;
21010;SDS011;10663;42.714;23.274;2022-12-20T08:27:50;19.92;;;13.68;;
21010;SDS011;10663;42.714;23.274;2022-12-20T08:29:22;21.85;;;13.85;;
21010;SDS011;10663;42.714;23.274;2022-12-20T08:30:58;22.85;;;13.57;;
21010;SDS011;10663;42.714;23.274;2022-12-20T08:32:37;22.52;;;13.70;;
21010;SDS011;10663;42.714;23.274;2022-12-20T08:34:08;22.38;;;14.30;;
21010;SDS011;10663;42.714;23.274;2022-12-20T08:35:39;22.77;;;13.55;;
21010;SDS011;10663;42.714;23.274;2022-12-20T08:37:10;22.90;;;13.73;;
21010;SDS011;10663;42.714;23.274;2022-12-20T08:38:41;21.55;;;13.25;;
21010;SDS011;10663;42.714;23.274;2022-12-20T08:40:12;20.02;;;13.25;;
21010;SDS011;10663;42.714;23.274;2022-12-20T08:41:44;21.52;;;13.02;;
21010;SDS011;10663;42.714;23.274;2022-12-20T08:43:14;19.60;;;13.07;;
21010;SDS011;10663;42.714;23.274;2022-12-20T08:44:45;19.85;;;13.10;;
21010;SDS011;10663;42.714;23.274;2022-12-20T08:46:16;21.67;;;13.07;;
21010;SDS011;10663;42.714;23.274;2022-12-20T08:47:47;19.80;;;12.73;;
21010;SDS011;10663;42.714;23.274;2022-12-20T08:49:18;22.08;;;13.57;;
21010;SDS011;10663;42.714;23.274;2022-12-20T08:50:53;19.67;;;13.30;;
21010;SDS011;10663;42.714;23.274;2022-12-20T08:52:26;20.58;;;13.07;;
21010;SDS011;10663;42.714;23.274;2022-12-20T08:53:58;20.92;;;13.30;;
21010;SDS011;10663;42.714;23.274;2022-12-20T08:55:29;19.23;;;12.77;;
21010;SDS011;10663;42.714;23.274;2022-12-20T08:57:00;23.10;;;14.33;;
21010;SDS011;10663;42.714;23.274;2022-12-20T08:58:31;22.20;;;13.02;;
21010;SDS011;10663;42.714;23.274;2022-12-20T09:00:02;23.67;;;13.75;;
21010;SDS011;10663;42.714;23.274;2022-12-20T09:01:34;20.60;;;12.98;;
21010;SDS011;10663;42.714;23.274;2022-12-20T09:03:05;20.77;;;13.30;;
21010;SDS011;10663;42.714;23.274;2022-12-20T09:04:37;19.35;;;12.95;;
21010;SDS011;10663;42.714;23.274;2022-12-20T09:06:09;18.95;;;12.40;;
21010;SDS011;10663;42.714;23.274;2022-12-20T09:07:44;23.13;;;13.68;;
21010;SDS011;10663;42.714;23.274;2022-12-20T09:09:15;19.58;;;13.35;;
21010;SDS011;10663;42.714;23.274;2022-12-20T09:10:46;23.95;;;13.93;;
21010;SDS011;10663;42.714;23.274;2022-12-20T09:12:17;20.42;;;12.88;;
21010;SDS011;10663;42.714;23.274;2022-12-20T09:13:49;23.20;;;13.43;;
21010;SDS011;10663;42.714;23.274;2022-12-20T09:15:22;19.95;;;12.80;;
21010;SDS011;10663;42.714;23.274;2022-12-20T09:16:52;18.55;;;11.80;;
21010;SDS011;10663;42.714;23.274;2022-12-20T09:18:23;18.80;;;12.57;;
21010;SDS011;10663;42.714;23.274;2022-12-20T09:19:54;21.45;;;12.80;;
21010;SDS011;10663;42.714;23.274;2022-12-20T09:21:25;19.58;;;12.43;;
21010;SDS011;10663;42.714;23.274;2022-12-20T09:22:57;19.85;;;12.77;;